Time;durP1;ratioP1;P1;durP2;ratioP2;P2;SDS_P1;SDS_P2;PMS_P1;PMS_P2;Temp;Humidity;BMP_temperature;BMP_pressure;BME280_temperature;BME280_humidity;BME280_pressure;Samples;Min_cycle;Max_cycle;Signal;HPM_P1;HPM_P2
2022/01/10 00:01:47;;;;;;;6.83;4.00;;;1.90;99.90;;;;;;4990786;28;21589;-83
2022/01/10 00:04:12;;;;;;;10.23;4.88;;;1.80;99.90;;;;;;4994372;28;20222;-82
2022/01/10 00:06:38;;;;;;;13.53;7.83;;;1.70;99.90;;;;;;4993465;28;20180;-81
2022/01/10 00:09:04;;;;;;;18.37;9.63;;;1.70;99.90;;;;;;4992571;28;20570;-82
2022/01/10 00:11:30;;;;;;;16.60;10.80;;;1.80;99.90;;;;;;4994911;28;20215;-81
2022/01/10 00:13:55;;;;;;;22.70;11.57;;;1.80;99.90;;;;;;4989387;28;20215;-82
2022/01/10 00:16:21;;;;;;;24.17;12.60;;;1.90;99.90;;;;;;5003478;28;20810;-80
2022/01/10 00:18:46;;;;;;;16.70;8.93;;;1.90;99.90;;;;;;4989772;28;20171;-83
2022/01/10 00:21:12;;;;;;;13.97;9.90;;;1.60;99.90;;;;;;4990289;28;20214;-82
2022/01/10 00:23:38;;;;;;;23.60;11.00;;;;;;;;;;4989367;28;20199;-82
2022/01/10 00:26:04;;;;;;;22.02;10.38;;;1.60;99.90;;;;;;4989856;28;20904;-82
2022/01/10 00:28:29;;;;;;;16.20;11.53;;;1.60;99.90;;;;;;4991328;28;20187;-83
2022/01/10 00:30:55;;;;;;;18.70;11.23;;;1.70;99.90;;;;;;4986943;28;20815;-81
2022/01/10 00:33:21;;;;;;;22.50;11.90;;;1.80;99.90;;;;;;4990732;28;20231;-81
2022/01/10 00:35:47;;;;;;;28.57;11.87;;;1.70;99.90;;;;;;4993106;28;20450;-82
2022/01/10 00:38:13;;;;;;;17.35;11.15;;;1.60;99.90;;;;;;4986463;28;20189;-83
2022/01/10 00:40:40;;;;;;;26.80;12.10;;;1.50;99.90;;;;;;4989278;28;20228;-83
2022/01/10 00:43:06;;;;;;;21.08;13.18;;;1.50;99.90;;;;;;4995753;28;20270;-84
2022/01/10 00:45:31;;;;;;;27.30;11.50;;;;;;;;;;4995060;28;20210;-82
2022/01/10 00:47:59;;;;;;;19.80;11.53;;;1.50;99.90;;;;;;5011098;28;20434;-83
2022/01/10 00:50:26;;;;;;;17.30;11.35;;;1.50;99.90;;;;;;4995638;28;20465;-83
2022/01/10 00:52:53;;;;;;;19.70;11.52;;;1.40;99.90;;;;;;4990172;28;20200;-81
2022/01/10 00:55:19;;;;;;;19.20;9.70;;;1.30;99.90;;;;;;4995027;28;20192;-83
2022/01/10 00:57:45;;;;;;;14.88;8.68;;;1.30;99.90;;;;;;4991597;28;20266;-83
2022/01/10 01:00:13;;;;;;;20.07;8.17;;;1.30;99.90;;;;;;4994749;28;20234;-83
2022/01/10 01:02:39;;;;;;;13.63;8.10;;;1.30;99.90;;;;;;4994622;28;20183;-84
2022/01/10 01:05:08;;;;;;;19.67;11.27;;;1.30;99.90;;;;;;4990871;28;20191;-85
2022/01/10 01:07:35;;;;;;;18.45;8.95;;;1.30;99.90;;;;;;5004871;28;20431;-83
2022/01/10 01:13:00;;;;;;;19.88;9.05;;;1.50;99.90;;;;;;4991733;28;20209;-81
2022/01/10 01:15:31;;;;;;;26.08;11.00;;;1.50;99.90;;;;;;4987872;28;20191;-83
2022/01/10 01:18:32;;;;;;;15.43;8.30;;;1.50;99.90;;;;;;5002799;28;20563;-83
2022/01/10 01:23:58;;;;;;;20.73;8.32;;;1.50;99.90;;;;;;4994156;28;20300;-85
2022/01/10 01:26:14;;;;;;;17.48;8.30;;;1.80;99.90;;;;;;4994223;28;20538;-84
2022/01/10 01:28:39;;;;;;;21.52;7.57;;;1.90;99.90;;;;;;4992547;28;20179;-84
2022/01/10 01:31:05;;;;;;;18.00;6.23;;;2.00;99.90;;;;;;4992804;28;20199;-84
2022/01/10 01:33:31;;;;;;;14.70;8.23;;;2.00;99.90;;;;;;4987583;28;20200;-84
2022/01/10 01:35:56;;;;;;;21.73;6.90;;;2.10;99.90;;;;;;4985272;28;20175;-84
2022/01/10 01:38:22;;;;;;;14.60;6.80;;;2.20;99.90;;;;;;4986348;28;20197;-84
2022/01/10 01:40:56;;;;;;;8.87;5.70;;;2.20;99.90;;;;;;4987048;28;20218;-83
2022/01/10 01:43:21;;;;;;;9.40;5.28;;;2.30;99.90;;;;;;4989058;28;20168;-85
2022/01/10 01:45:48;;;;;;;8.20;5.00;;;2.30;99.90;;;;;;4994025;28;20186;-83
2022/01/10 01:48:15;;;;;;;13.38;5.57;;;2.30;99.90;;;;;;4988826;28;20175;-84
2022/01/10 01:50:40;;;;;;;16.80;5.57;;;2.30;99.90;;;;;;4988519;28;20284;-84
2022/01/10 01:53:07;;;;;;;7.27;5.17;;;2.30;99.90;;;;;;4988383;28;20195;-84
2022/01/10 01:55:33;;;;;;;8.30;4.60;;;2.20;99.90;;;;;;4986031;28;21910;-84
2022/01/10 01:57:59;;;;;;;9.60;4.50;;;2.20;99.90;;;;;;4990587;28;20179;-85
2022/01/10 02:00:25;;;;;;;11.13;4.23;;;2.30;99.90;;;;;;4990526;28;20451;-84
2022/01/10 02:02:52;;;;;;;10.70;4.25;;;2.40;99.90;;;;;;4988849;28;20469;-85
2022/01/10 02:05:18;;;;;;;12.63;3.95;;;2.40;99.90;;;;;;4985607;28;20180;-83
2022/01/10 02:07:44;;;;;;;9.63;4.20;;;2.40;99.90;;;;;;4982472;28;20194;-83
2022/01/10 02:10:10;;;;;;;7.45;3.70;;;2.40;99.90;;;;;;4985827;28;20486;-84
2022/01/10 02:12:36;;;;;;;8.17;3.23;;;2.50;99.90;;;;;;4984497;28;20224;-84
2022/01/10 02:15:02;;;;;;;18.27;4.10;;;2.50;99.90;;;;;;4979236;28;20448;-84
2022/01/10 02:17:35;;;;;;;12.27;4.63;;;2.50;99.90;;;;;;4981046;28;21221;-83
2022/01/10 02:20:03;;;;;;;11.05;4.18;;;2.50;99.90;;;;;;4980026;28;20195;-84
2022/01/10 02:22:28;;;;;;;8.18;5.25;;;2.60;99.90;;;;;;4979265;28;20205;-83
2022/01/10 02:24:54;;;;;;;12.30;8.10;;;2.50;99.90;;;;;;4978968;28;20183;-82
2022/01/10 02:27:24;;;;;;;16.63;7.77;;;2.50;99.90;;;;;;4984042;28;20219;-82
2022/01/10 02:29:51;;;;;;;15.73;8.57;;;2.50;99.90;;;;;;4988375;28;21112;-81
2022/01/10 02:32:17;;;;;;;15.65;7.78;;;2.40;99.90;;;;;;4985157;28;20612;-84
2022/01/10 02:34:42;;;;;;;14.75;7.70;;;2.40;99.90;;;;;;4987497;28;20199;-81
2022/01/10 02:37:08;;;;;;;12.17;8.10;;;2.40;99.90;;;;;;4986176;28;20262;-81
2022/01/10 02:39:36;;;;;;;18.60;8.43;;;2.40;99.90;;;;;;4984533;28;20458;-82
2022/01/10 02:42:01;;;;;;;12.77;7.63;;;2.40;99.90;;;;;;4986967;28;20179;-82
2022/01/10 02:44:29;;;;;;;11.07;7.13;;;2.40;99.90;;;;;;4984125;28;20703;-82
2022/01/10 02:46:56;;;;;;;16.02;7.88;;;2.20;99.90;;;;;;4983717;28;20958;-82
2022/01/10 02:49:27;;;;;;;14.40;7.43;;;1.80;99.90;;;;;;4993878;28;20179;-82
2022/01/10 02:51:54;;;;;;;8.52;5.82;;;1.80;99.90;;;;;;4986105;28;20191;-82
2022/01/10 02:54:25;;;;;;;11.77;7.05;;;1.80;99.90;;;;;;4974233;28;20214;-82
2022/01/10 02:56:56;;;;;;;14.60;6.53;;;1.80;99.90;;;;;;4979873;28;20244;-82
2022/01/10 02:59:23;;;;;;;10.48;5.93;;;2.00;99.90;;;;;;4982234;28;20760;-81
2022/01/10 03:01:50;;;;;;;19.08;6.50;;;2.00;99.90;;;;;;4985776;28;20190;-81
2022/01/10 03:04:16;;;;;;;15.38;6.32;;;2.10;99.90;;;;;;4982720;28;20602;-82
2022/01/10 03:06:43;;;;;;;10.40;6.03;;;2.30;99.90;;;;;;4985142;28;20320;-84
2022/01/10 03:09:10;;;;;;;9.80;5.63;;;2.30;99.90;;;;;;4986978;28;20726;-82
2022/01/10 03:11:38;;;;;;;14.63;6.55;;;2.40;99.90;;;;;;4985020;22;20328;-80
2022/01/10 03:14:04;;;;;;;11.63;5.97;;;2.40;99.90;;;;;;4979647;28;21202;-81
2022/01/10 03:16:29;;;;;;;11.23;5.60;;;2.40;99.90;;;;;;4957889;28;20195;-81
2022/01/10 03:18:55;;;;;;;8.53;5.50;;;2.50;99.90;;;;;;4976275;28;20187;-82
2022/01/10 03:21:21;;;;;;;9.63;5.73;;;2.50;99.90;;;;;;4962127;28;20214;-82
2022/01/10 03:23:51;;;;;;;14.80;6.40;;;2.60;99.90;;;;;;4962567;28;20196;-81
2022/01/10 03:26:17;;;;;;;8.68;4.93;;;2.60;99.90;;;;;;4961381;28;20185;-80
2022/01/10 03:28:42;;;;;;;15.43;4.03;;;2.60;99.90;;;;;;4965794;28;20200;-79
2022/01/10 03:31:08;;;;;;;11.03;3.40;;;2.60;99.90;;;;;;4963218;28;20771;-79
2022/01/10 03:33:34;;;;;;;5.95;3.65;;;2.50;99.90;;;;;;4972679;28;20216;-78
2022/01/10 03:35:59;;;;;;;17.63;4.50;;;2.50;99.90;;;;;;4962168;28;20807;-80
2022/01/10 03:38:25;;;;;;;10.80;5.50;;;2.60;99.90;;;;;;4962636;28;20187;-79
2022/01/10 03:40:51;;;;;;;10.30;5.07;;;2.60;99.90;;;;;;4974260;28;20204;-81
2022/01/10 03:43:16;;;;;;;16.23;6.57;;;2.70;99.90;;;;;;4966382;28;20243;-81
2022/01/10 03:45:43;;;;;;;11.37;6.37;;;2.70;99.90;;;;;;4960183;28;20195;-80
2022/01/10 03:48:08;;;;;;;15.32;5.72;;;2.70;99.90;;;;;;4976288;28;20180;-80
2022/01/10 03:50:34;;;;;;;10.83;4.90;;;2.70;99.90;;;;;;4960848;28;20257;-80
2022/01/10 03:53:00;;;;;;;5.57;4.47;;;2.60;99.90;;;;;;4961327;28;20228;-82
2022/01/10 03:55:25;;;;;;;6.40;4.77;;;2.50;99.90;;;;;;4960118;28;20668;-81
2022/01/10 03:57:51;;;;;;;9.20;4.87;;;2.60;99.90;;;;;;4963409;28;20544;-80
2022/01/10 04:00:17;;;;;;;13.30;4.50;;;2.50;99.90;;;;;;4961760;28;20229;-79
2022/01/10 04:02:49;;;;;;;16.03;7.07;;;2.50;99.90;;;;;;4964115;28;20223;-79
2022/01/10 04:05:16;;;;;;;20.77;8.23;;;2.50;99.90;;;;;;4961642;28;20469;-78
2022/01/10 04:07:41;;;;;;;10.10;6.25;;;2.60;99.90;;;;;;4959399;28;20186;-79
2022/01/10 04:10:07;;;;;;;10.30;6.37;;;2.70;99.90;;;;;;4959275;28;20183;-81
2022/01/10 04:12:33;;;;;;;11.63;5.03;;;2.70;99.90;;;;;;4959136;28;20282;-80
2022/01/10 04:14:58;;;;;;;11.43;4.50;;;2.70;99.90;;;;;;4962332;28;20202;-78
2022/01/10 04:17:24;;;;;;;9.70;4.77;;;2.70;99.90;;;;;;4961620;28;20233;-80
2022/01/10 04:19:49;;;;;;;8.07;4.70;;;2.70;99.90;;;;;;4961489;28;20743;-79
2022/01/10 04:22:15;;;;;;;7.17;4.97;;;2.70;99.90;;;;;;4959514;28;20211;-80
2022/01/10 04:24:40;;;;;;;10.87;6.73;;;2.70;99.90;;;;;;4960333;28;20255;-79
2022/01/10 04:27:06;;;;;;;12.60;4.70;;;2.70;99.90;;;;;;4953116;28;20191;-79
2022/01/10 04:29:32;;;;;;;10.13;3.87;;;2.80;99.90;;;;;;4969025;28;20209;-79
2022/01/10 04:31:57;;;;;;;6.23;3.67;;;2.70;99.90;;;;;;4955385;28;20207;-78
2022/01/10 04:34:23;;;;;;;8.10;5.37;;;2.70;99.90;;;;;;4960370;28;20216;-81
2022/01/10 04:36:48;;;;;;;10.07;5.43;;;2.60;99.90;;;;;;4959114;28;20184;-78
2022/01/10 04:39:14;;;;;;;11.47;6.47;;;2.60;99.90;;;;;;4959229;28;20323;-80
2022/01/10 04:41:39;;;;;;;17.47;8.67;;;2.50;99.90;;;;;;4959929;28;20210;-79
2022/01/10 04:44:07;;;;;;;25.00;11.53;;;2.50;99.90;;;;;;4955656;28;20183;-80
2022/01/10 04:46:33;;;;;;;14.77;9.32;;;2.50;99.90;;;;;;4966419;28;20383;-80
2022/01/10 04:48:59;;;;;;;7.30;4.10;;;2.50;99.90;;;;;;4966574;28;22138;-81
2022/01/10 04:51:27;;;;;;;10.05;4.50;;;2.50;99.90;;;;;;4965160;28;21462;-81
2022/01/10 04:53:53;;;;;;;10.55;6.28;;;2.50;99.90;;;;;;4961231;28;20208;-80
2022/01/10 04:56:20;;;;;;;15.40;8.17;;;2.60;99.90;;;;;;4954642;28;20176;-77
2022/01/10 04:58:47;;;;;;;14.10;8.52;;;2.60;99.90;;;;;;4960571;28;20184;-82
2022/01/10 05:01:14;;;;;;;16.40;10.27;;;2.70;99.90;;;;;;4961718;28;20203;-82
2022/01/10 05:03:39;;;;;;;17.92;7.35;;;2.60;99.90;;;;;;4966688;28;20223;-83
2022/01/10 05:06:05;;;;;;;17.30;6.07;;;2.50;99.90;;;;;;4967177;28;20215;-81
2022/01/10 05:08:31;;;;;;;16.03;7.70;;;2.40;99.90;;;;;;4969278;28;20444;-82
2022/01/10 05:10:57;;;;;;;11.38;7.30;;;2.40;99.90;;;;;;4979420;28;21541;-80
2022/01/10 05:13:23;;;;;;;17.00;8.82;;;;;;;;;;4965989;28;20442;-82
2022/01/10 05:15:51;;;;;;;10.18;5.65;;;2.40;99.90;;;;;;4966902;28;20191;-82
2022/01/10 05:18:18;;;;;;;10.40;7.20;;;2.40;99.90;;;;;;4970434;28;20188;-83
2022/01/10 05:20:44;;;;;;;10.35;7.53;;;2.40;99.90;;;;;;4976547;28;20644;-82
2022/01/10 05:23:10;;;;;;;16.00;8.27;;;2.30;99.90;;;;;;4967379;28;20183;-80
2022/01/10 05:25:39;;;;;;;26.00;12.33;;;2.10;99.90;;;;;;4967809;28;21206;-82
2022/01/10 05:28:09;;;;;;;24.73;15.82;;;2.10;99.90;;;;;;4982667;28;22750;-79
2022/01/10 05:30:35;;;;;;;25.30;13.73;;;2.00;99.90;;;;;;4969072;28;20245;-79
2022/01/10 05:33:01;;;;;;;23.93;14.30;;;1.80;99.90;;;;;;4961808;28;20210;-80
2022/01/10 05:35:26;;;;;;;29.37;16.03;;;1.80;99.90;;;;;;4964485;28;20186;-82
2022/01/10 05:37:52;;;;;;;14.60;5.87;;;1.80;99.90;;;;;;4961909;28;20554;-81
2022/01/10 05:40:19;;;;;;;21.50;10.07;;;1.50;99.90;;;;;;4962627;28;20192;-83
2022/01/10 05:42:45;;;;;;;48.78;24.40;;;1.40;99.90;;;;;;4962914;28;20190;-82
2022/01/10 05:45:11;;;;;;;47.65;24.90;;;1.40;99.90;;;;;;4966598;28;20184;-81
2022/01/10 05:47:41;;;;;;;52.03;25.90;;;1.60;99.90;;;;;;4957776;28;20192;-81
2022/01/10 05:50:09;;;;;;;39.63;23.00;;;1.70;99.90;;;;;;4958507;28;20351;-82
2022/01/10 05:52:35;;;;;;;48.50;24.40;;;1.70;99.90;;;;;;4962856;28;20263;-81
2022/01/10 05:55:00;;;;;;;39.33;20.17;;;1.70;99.90;;;;;;4963160;28;20259;-80
2022/01/10 05:57:26;;;;;;;19.17;9.83;;;1.80;99.90;;;;;;4961890;28;20196;-81
2022/01/10 05:59:51;;;;;;;21.40;9.17;;;1.80;99.90;;;;;;4955976;28;20231;-80
2022/01/10 06:02:17;;;;;;;25.70;11.80;;;1.70;99.90;;;;;;4961093;28;20660;-82
2022/01/10 06:04:42;;;;;;;24.87;11.40;;;1.70;99.90;;;;;;4971380;28;20216;-80
2022/01/10 06:07:08;;;;;;;18.10;10.63;;;1.70;99.90;;;;;;4967184;28;20191;-80
2022/01/10 06:09:33;;;;;;;23.27;10.10;;;1.70;99.90;;;;;;4980551;28;20208;-80
2022/01/10 06:11:59;;;;;;;15.60;7.87;;;1.80;99.90;;;;;;4959491;28;20231;-82
2022/01/10 06:14:25;;;;;;;20.17;10.20;;;2.00;99.90;;;;;;4964538;28;20262;-82
2022/01/10 06:16:51;;;;;;;25.37;10.93;;;2.10;99.90;;;;;;4967287;28;20184;-82
2022/01/10 06:19:16;;;;;;;14.23;8.60;;;2.00;99.90;;;;;;4966646;28;20719;-79
2022/01/10 06:21:42;;;;;;;20.70;9.67;;;2.20;99.90;;;;;;4973157;28;20526;-80
2022/01/10 06:24:08;;;;;;;20.50;9.80;;;2.10;99.90;;;;;;4969730;28;20725;-82
2022/01/10 06:26:33;;;;;;;21.52;12.23;;;2.10;99.90;;;;;;4960223;28;20199;-81
2022/01/10 06:28:59;;;;;;;33.73;14.97;;;2.10;99.90;;;;;;4958787;28;20192;-82
2022/01/10 06:31:25;;;;;;;28.30;12.80;;;2.20;99.90;;;;;;4968710;28;20283;-80
2022/01/10 06:33:50;;;;;;;34.93;15.60;;;2.20;99.90;;;;;;4965286;28;20211;-79
2022/01/10 06:36:16;;;;;;;39.27;16.50;;;2.10;99.90;;;;;;4966278;28;20214;-81
2022/01/10 06:38:41;;;;;;;37.57;15.53;;;2.10;99.90;;;;;;4965548;28;20341;-82
2022/01/10 06:41:07;;;;;;;41.27;17.87;;;2.10;99.90;;;;;;4963658;28;20631;-80
2022/01/10 06:43:33;;;;;;;41.97;16.80;;;2.10;99.90;;;;;;4977801;28;20198;-80
2022/01/10 06:45:58;;;;;;;34.17;16.33;;;2.20;99.90;;;;;;4966885;28;20210;-82
2022/01/10 06:48:24;;;;;;;45.27;18.77;;;2.30;99.90;;;;;;4967362;28;20192;-82
2022/01/10 06:50:49;;;;;;;39.70;18.60;;;2.30;99.90;;;;;;4972936;28;20261;-80
2022/01/10 06:53:16;;;;;;;36.63;18.57;;;2.30;99.90;;;;;;4985109;28;20231;-81
2022/01/10 06:55:42;;;;;;;44.42;20.17;;;2.40;99.90;;;;;;4966156;28;20180;-83
2022/01/10 06:58:07;;;;;;;37.20;19.20;;;2.50;99.90;;;;;;4963850;28;20191;-80
2022/01/10 07:00:35;;;;;;;45.13;19.70;;;2.60;99.90;;;;;;4967544;28;20473;-81
2022/01/10 07:03:00;;;;;;;34.97;16.05;;;2.60;99.90;;;;;;4964309;28;20188;-80
2022/01/10 07:05:26;;;;;;;35.40;14.10;;;2.50;99.90;;;;;;4961815;28;20605;-83
2022/01/10 07:07:52;;;;;;;37.35;16.27;;;2.50;99.90;;;;;;4964539;28;21223;-80
2022/01/10 07:10:17;;;;;;;29.60;15.27;;;2.30;99.90;;;;;;4964963;28;20183;-82
2022/01/10 07:12:43;;;;;;;30.57;14.77;;;2.30;99.90;;;;;;4968685;28;20249;-81
2022/01/10 07:15:09;;;;;;;31.97;15.67;;;2.30;99.90;;;;;;4972085;28;20275;-80
2022/01/10 07:17:34;;;;;;;31.80;16.47;;;2.40;99.90;;;;;;4967461;28;20187;-81
2022/01/10 07:20:00;;;;;;;41.03;18.77;;;2.40;99.90;;;;;;4969363;28;20183;-80
2022/01/10 07:22:27;;;;;;;43.20;15.50;;;2.30;99.90;;;;;;4968679;28;20761;-82
2022/01/10 07:24:53;;;;;;;54.50;17.30;;;2.30;99.90;;;;;;4968414;28;20664;-80
2022/01/10 07:27:18;;;;;;;41.80;18.30;;;2.20;99.90;;;;;;4967473;28;20509;-80
2022/01/10 07:29:45;;;;;;;53.33;18.03;;;2.30;99.90;;;;;;4966482;28;20281;-82
2022/01/10 07:32:11;;;;;;;32.47;16.33;;;2.40;99.90;;;;;;4961140;28;20489;-81
2022/01/10 07:34:36;;;;;;;46.77;17.63;;;2.60;99.90;;;;;;4955326;28;20215;-80
2022/01/10 07:37:02;;;;;;;44.83;16.17;;;2.60;99.90;;;;;;4966419;28;20176;-80
2022/01/10 07:39:27;;;;;;;47.10;15.43;;;2.60;99.90;;;;;;4963369;28;20187;-78
2022/01/10 07:41:53;;;;;;;37.30;14.70;;;2.50;99.90;;;;;;4963265;28;20207;-81
2022/01/10 07:44:18;;;;;;;36.73;15.87;;;2.60;99.90;;;;;;4967983;28;20199;-81
2022/01/10 07:46:44;;;;;;;39.87;18.17;;;2.60;99.90;;;;;;4970514;28;20180;-82
2022/01/10 07:49:09;;;;;;;32.93;16.20;;;2.80;99.90;;;;;;4964483;28;20840;-81
2022/01/10 07:51:35;;;;;;;31.57;15.10;;;2.90;99.90;;;;;;4967339;28;20199;-83
2022/01/10 07:54:01;;;;;;;44.57;15.33;;;3.00;99.90;;;;;;4965530;28;20211;-81
2022/01/10 07:56:27;;;;;;;37.50;16.50;;;3.10;99.90;;;;;;4968467;28;20187;-80
2022/01/10 07:58:52;;;;;;;35.70;16.77;;;3.20;99.90;;;;;;4967006;28;20279;-81
2022/01/10 08:01:21;;;;;;;37.63;17.00;;;3.30;99.90;;;;;;4966983;28;20307;-81
2022/01/10 08:03:52;;;;;;;36.60;15.50;;;3.40;99.90;;;;;;4980555;28;20728;-79
2022/01/10 08:06:19;;;;;;;50.13;19.15;;;3.50;99.90;;;;;;4972351;28;20180;-80
2022/01/10 08:08:44;;;;;;;46.65;17.02;;;3.60;99.90;;;;;;4968292;28;20620;-80
2022/01/10 08:11:10;;;;;;;41.90;16.60;;;3.50;99.90;;;;;;4966500;28;20302;-80
2022/01/10 08:13:36;;;;;;;45.77;16.73;;;3.40;99.90;;;;;;4968971;28;20418;-82
2022/01/10 08:16:02;;;;;;;35.23;16.87;;;3.50;99.90;;;;;;4969237;28;20191;-82
2022/01/10 08:18:30;;;;;;;45.40;15.35;;;3.60;99.90;;;;;;4969488;28;20668;-82
2022/01/10 08:20:56;;;;;;;51.97;20.00;;;3.50;99.90;;;;;;4979475;28;20203;-80
2022/01/10 08:23:21;;;;;;;44.97;18.83;;;3.60;99.90;;;;;;4967544;28;20458;-81
2022/01/10 08:25:47;;;;;;;36.90;16.87;;;3.70;99.90;;;;;;4969134;28;20176;-80
2022/01/10 08:28:13;;;;;;;36.13;18.40;;;3.90;99.90;;;;;;4968281;28;20550;-81
2022/01/10 08:30:38;;;;;;;40.33;16.90;;;3.90;99.90;;;;;;4966745;28;20210;-79
2022/01/10 08:33:04;;;;;;;44.30;17.00;;;3.70;99.90;;;;;;4982691;28;20219;-82
2022/01/10 08:35:30;;;;;;;40.03;17.65;;;3.70;99.90;;;;;;4969264;28;20191;-82
2022/01/10 08:37:56;;;;;;;38.73;16.30;;;3.50;99.90;;;;;;4971906;28;20550;-80
2022/01/10 08:40:21;;;;;;;38.60;16.90;;;3.50;99.90;;;;;;4970682;28;20459;-82
2022/01/10 08:42:47;;;;;;;47.53;18.63;;;3.50;99.90;;;;;;4986396;28;20188;-78
2022/01/10 08:45:12;;;;;;;39.13;16.90;;;3.60;99.90;;;;;;4967675;28;20277;-81
2022/01/10 08:47:38;;;;;;;37.20;17.77;;;3.60;99.90;;;;;;4970331;28;20655;-81
2022/01/10 08:50:06;;;;;;;46.40;18.93;;;3.90;99.90;;;;;;4970080;28;20663;-82
2022/01/10 08:52:32;;;;;;;40.22;17.90;;;3.90;99.90;;;;;;4971348;28;21043;-81
2022/01/10 08:54:57;;;;;;;31.60;15.90;;;3.90;99.90;;;;;;4965983;28;20213;-81
2022/01/10 08:57:24;;;;;;;34.67;14.97;;;3.90;99.90;;;;;;4966032;28;20185;-82
2022/01/10 08:59:50;;;;;;;43.28;16.00;;;4.00;99.90;;;;;;4964368;28;20180;-79
2022/01/10 09:02:16;;;;;;;51.30;22.52;;;3.90;99.90;;;;;;4981408;28;20719;-82
2022/01/10 09:04:42;;;;;;;46.13;17.17;;;3.80;99.90;;;;;;4967373;28;20183;-79
2022/01/10 09:07:08;;;;;;;42.37;16.90;;;3.80;99.90;;;;;;4965140;28;20411;-81
2022/01/10 09:09:34;;;;;;;39.95;17.55;;;3.60;99.90;;;;;;4967258;28;20179;-82
2022/01/10 09:12:00;;;;;;;42.15;18.30;;;3.60;99.90;;;;;;5006019;22;20292;-83
2022/01/10 09:14:25;;;;;;;47.20;17.87;;;3.50;99.90;;;;;;4986599;28;20219;-82
2022/01/10 09:16:51;;;;;;;38.43;15.90;;;3.60;99.90;;;;;;4985409;28;20191;-82
2022/01/10 09:19:17;;;;;;;38.23;16.10;;;3.80;99.90;;;;;;5004591;28;20183;-82
2022/01/10 09:21:42;;;;;;;38.33;16.67;;;3.80;99.90;;;;;;4991182;28;20207;-82
2022/01/10 09:24:08;;;;;;;36.10;17.30;;;3.80;99.90;;;;;;4981491;28;20195;-83
2022/01/10 09:26:34;;;;;;;44.17;18.20;;;3.70;99.90;;;;;;4989632;28;20225;-83
2022/01/10 09:28:59;;;;;;;35.17;16.80;;;3.90;99.90;;;;;;4981627;28;20214;-83
2022/01/10 09:31:25;;;;;;;39.20;17.73;;;4.00;99.90;;;;;;5000975;28;20211;-83
2022/01/10 09:33:54;;;;;;;41.38;17.67;;;4.00;99.90;;;;;;4987557;28;20255;-83
2022/01/10 09:36:25;;;;;;;35.03;16.63;;;4.00;99.90;;;;;;4987291;28;20195;-80
2022/01/10 09:38:51;;;;;;;36.17;18.23;;;3.70;99.90;;;;;;4983945;28;20166;-82
2022/01/10 09:41:16;;;;;;;42.90;18.00;;;3.90;99.90;;;;;;4981327;28;20305;-81
2022/01/10 09:43:49;;;;;;;34.30;17.37;;;4.00;99.90;;;;;;4985470;28;20293;-82
2022/01/10 09:46:15;;;;;;;41.55;17.15;;;4.00;99.90;;;;;;4985592;28;20199;-80
2022/01/10 09:48:40;;;;;;;35.80;17.10;;;4.20;99.90;;;;;;4987035;28;20198;-81
2022/01/10 09:51:06;;;;;;;37.70;18.33;;;4.40;99.90;;;;;;4988025;28;20227;-83
2022/01/10 09:53:32;;;;;;;41.93;20.10;;;4.20;99.90;;;;;;4986921;28;20699;-80
2022/01/10 09:55:57;;;;;;;35.30;17.87;;;4.30;99.90;;;;;;4982091;28;20616;-82
2022/01/10 09:58:23;;;;;;;41.90;17.03;;;4.50;99.90;;;;;;4987544;28;20179;-81
2022/01/10 10:00:53;;;;;;;31.70;14.53;;;4.50;99.90;;;;;;4985307;28;20217;-81
2022/01/10 10:03:21;;;;;;;33.53;14.00;;;4.50;99.90;;;;;;4983815;28;20229;-81
2022/01/10 10:05:46;;;;;;;32.05;16.27;;;4.60;99.90;;;;;;4983026;28;20654;-80
2022/01/10 10:08:12;;;;;;;35.70;18.20;;;4.50;99.90;;;;;;4988626;28;20190;-79
2022/01/10 10:10:37;;;;;;;28.73;13.80;;;4.80;99.90;;;;;;4980625;28;20211;-81
2022/01/10 10:13:03;;;;;;;31.73;15.43;;;4.80;99.90;;;;;;4979313;28;20211;-80
2022/01/10 10:15:32;;;;;;;28.17;14.80;;;5.00;99.90;;;;;;4986553;28;20180;-80
2022/01/10 10:17:58;;;;;;;33.05;15.55;;;5.00;99.90;;;;;;4988358;28;20214;-80
2022/01/10 10:20:24;;;;;;;31.07;14.73;;;4.80;99.90;;;;;;4990588;28;20572;-80
2022/01/10 10:22:53;;;;;;;29.98;15.38;;;4.80;99.90;;;;;;4988371;28;20227;-81
2022/01/10 10:25:19;;;;;;;40.55;15.85;;;5.00;99.90;;;;;;4989633;28;20171;-80
2022/01/10 10:27:46;;;;;;;26.83;14.97;;;5.20;99.90;;;;;;4986640;28;20183;-79
2022/01/10 10:30:16;;;;;;;38.67;16.48;;;5.30;99.90;;;;;;4988680;28;20467;-80
2022/01/10 10:32:41;;;;;;;28.05;14.55;;;5.30;99.90;;;;;;4986796;28;20597;-80
2022/01/10 10:35:08;;;;;;;32.73;13.27;;;5.30;99.90;;;;;;4990882;28;20179;-79
2022/01/10 10:37:40;;;;;;;33.47;16.10;;;5.20;99.90;;;;;;4987321;28;20267;-81
2022/01/10 10:40:09;;;;;;;34.40;15.38;;;5.00;99.90;;;;;;4989454;28;20186;-81
2022/01/10 10:42:37;;;;;;;33.22;14.75;;;3.70;99.90;;;;;;4987429;28;20754;-82
2022/01/10 10:45:06;;;;;;;36.03;16.48;;;4.60;99.90;;;;;;5003576;28;20175;-81
2022/01/10 10:47:34;;;;;;;25.75;14.68;;;4.50;99.90;;;;;;4992109;28;20832;-83
2022/01/10 10:50:00;;;;;;;31.73;13.55;;;4.30;99.90;;;;;;4995684;28;20270;-81
2022/01/10 10:52:34;;;;;;;31.30;16.67;;;4.30;99.90;;;;;;4993143;28;20711;-81
2022/01/10 10:55:10;;;;;;;34.00;15.50;;;4.40;99.90;;;;;;4983797;28;20938;-82
2022/01/10 10:57:36;;;;;;;25.65;14.27;;;4.50;99.90;;;;;;4990370;28;20669;-83
2022/01/10 11:00:06;;;;;;;31.50;14.57;;;4.60;99.90;;;;;;4995009;28;20190;-82
2022/01/10 11:02:31;;;;;;;23.70;12.35;;;4.50;99.90;;;;;;4997161;28;21103;-82
2022/01/10 11:05:01;;;;;;;32.70;15.00;;;4.50;99.90;;;;;;4990830;28;20269;-83
2022/01/10 11:07:31;;;;;;;42.38;16.10;;;4.40;99.90;;;;;;4994071;28;20176;-81
2022/01/10 11:09:57;;;;;;;36.05;15.18;;;4.40;99.90;;;;;;4991237;28;21748;-82
2022/01/10 11:12:24;;;;;;;30.13;16.30;;;4.40;99.90;;;;;;4988982;28;20268;-82
2022/01/10 11:14:52;;;;;;;30.17;15.88;;;4.40;99.90;;;;;;4993355;28;20526;-82
2022/01/10 11:17:21;;;;;;;34.45;15.57;;;4.40;99.90;;;;;;4991940;28;20243;-82
2022/01/10 11:20:07;;;;;;;28.05;14.40;;;4.60;99.90;;;;;;4992902;28;20187;-80
2022/01/10 11:22:33;;;;;;;31.02;13.68;;;4.50;99.90;;;;;;4997708;28;20188;-80
2022/01/10 11:24:58;;;;;;;29.03;12.83;;;4.30;99.90;;;;;;4988088;28;20194;-80
2022/01/10 11:27:34;;;;;;;35.03;12.47;;;3.90;99.90;;;;;;4993519;28;20198;-80
2022/01/10 11:30:22;;;;;;;33.67;13.68;;;3.90;99.90;;;;;;4989530;28;20181;-80
2022/01/10 11:33:03;;;;;;;32.00;14.32;;;3.70;99.90;;;;;;4990225;28;20649;-81
2022/01/10 11:35:41;;;;;;;30.33;14.60;;;3.70;99.90;;;;;;4992728;28;20204;-81
2022/01/10 11:38:22;;;;;;;38.38;14.95;;;3.70;99.90;;;;;;4984310;28;20240;-80
2022/01/10 11:40:53;;;;;;;32.10;15.48;;;3.70;99.90;;;;;;4990099;28;20199;-80
2022/01/10 11:43:47;;;;;;;35.53;13.38;;;3.80;99.90;;;;;;4982004;28;20221;-80
2022/01/10 11:46:45;;;;;;;38.67;16.52;;;3.60;99.90;;;;;;4991058;28;20616;-80
2022/01/10 11:49:23;;;;;;;41.47;16.60;;;3.60;99.90;;;;;;4984914;28;20176;-81
2022/01/10 11:51:51;;;;;;;35.45;17.08;;;3.90;99.90;;;;;;4992285;28;20227;-81
2022/01/10 11:54:35;;;;;;;31.25;15.60;;;4.10;99.90;;;;;;4987484;28;20203;-80
2022/01/10 11:57:03;;;;;;;30.83;15.13;;;4.20;99.90;;;;;;4990245;28;20175;-80
2022/01/10 11:59:30;;;;;;;28.17;14.55;;;4.10;99.90;;;;;;4989857;28;20270;-81
2022/01/10 12:02:10;;;;;;;33.22;14.68;;;4.40;99.90;;;;;;4986478;28;20866;-80
2022/01/10 12:04:36;;;;;;;31.67;15.70;;;4.50;99.90;;;;;;4988905;28;20310;-81
2022/01/10 12:07:05;;;;;;;28.00;14.52;;;4.30;99.90;;;;;;4990103;28;20607;-80
2022/01/10 12:09:31;;;;;;;28.95;13.77;;;4.20;99.90;;;;;;4988416;28;20191;-81
2022/01/10 12:11:59;;;;;;;33.25;16.88;;;4.10;99.90;;;;;;4988269;28;20238;-81
2022/01/10 12:14:26;;;;;;;38.92;14.00;;;3.80;99.90;;;;;;4992145;28;20222;-80
2022/01/10 12:16:53;;;;;;;31.20;15.93;;;3.60;99.90;;;;;;4988158;28;20191;-80
2022/01/10 12:19:20;;;;;;;32.70;15.30;;;3.40;99.90;;;;;;4987878;28;20187;-80
2022/01/10 12:21:46;;;;;;;37.85;15.68;;;3.40;99.90;;;;;;4988129;28;20538;-81
2022/01/10 12:24:12;;;;;;;39.92;17.85;;;3.50;99.90;;;;;;4993165;28;20734;-80
2022/01/10 12:26:38;;;;;;;33.03;17.17;;;3.50;99.90;;;;;;4991549;28;20179;-80
2022/01/10 12:29:07;;;;;;;40.78;16.38;;;3.50;99.90;;;;;;4990791;28;20195;-81
2022/01/10 12:31:34;;;;;;;43.70;17.10;;;3.50;99.90;;;;;;4992542;28;20195;-81
2022/01/10 12:34:01;;;;;;;33.70;17.30;;;3.50;99.90;;;;;;4993428;28;20199;-81
2022/01/10 12:36:28;;;;;;;43.85;18.80;;;3.60;99.90;;;;;;4993433;28;20190;-81
2022/01/10 12:39:00;;;;;;;38.13;17.42;;;3.80;99.90;;;;;;4992148;28;20293;-80
2022/01/10 12:41:29;;;;;;;38.58;18.38;;;3.80;99.90;;;;;;4995141;28;20749;-81
2022/01/10 12:43:56;;;;;;;39.92;18.45;;;4.00;99.90;;;;;;4998951;28;20560;-80
2022/01/10 12:46:23;;;;;;;42.08;16.75;;;4.30;99.90;;;;;;4994598;28;20615;-80
2022/01/10 12:48:51;;;;;;;34.80;17.77;;;4.30;99.90;;;;;;4982568;28;20276;-81